sensor_id;sensor_type;location;lat;lon;timestamp;P1;durP1;ratioP1;P2;durP2;ratioP2
43435;SDS011;36399;51.444;-2.018;2022-08-03T00:00:42;6.68;;;2.25;;
43435;SDS011;36399;51.444;-2.018;2022-08-03T00:03:08;3.88;;;1.45;;
43435;SDS011;36399;51.444;-2.018;2022-08-03T00:05:35;3.42;;;1.48;;
43435;SDS011;36399;51.444;-2.018;2022-08-03T00:08:02;5.72;;;1.40;;
43435;SDS011;36399;51.444;-2.018;2022-08-03T00:10:28;6.45;;;1.50;;
43435;SDS011;36399;51.444;-2.018;2022-08-03T00:12:54;5.25;;;1.42;;
43435;SDS011;36399;51.444;-2.018;2022-08-03T00:15:20;3.85;;;1.42;;
43435;SDS011;36399;51.444;-2.018;2022-08-03T00:17:46;6.75;;;2.08;;
43435;SDS011;36399;51.444;-2.018;2022-08-03T00:20:12;3.33;;;0.93;;
43435;SDS011;36399;51.444;-2.018;2022-08-03T00:22:39;5.05;;;1.40;;
43435;SDS011;36399;51.444;-2.018;2022-08-03T00:25:05;5.75;;;1.17;;
43435;SDS011;36399;51.444;-2.018;2022-08-03T00:27:31;3.58;;;1.50;;
43435;SDS011;36399;51.444;-2.018;2022-08-03T00:29:58;7.03;;;1.65;;
43435;SDS011;36399;51.444;-2.018;2022-08-03T00:32:24;4.80;;;1.98;;
43435;SDS011;36399;51.444;-2.018;2022-08-03T00:34:50;6.30;;;1.77;;
43435;SDS011;36399;51.444;-2.018;2022-08-03T00:37:18;6.55;;;1.77;;
43435;SDS011;36399;51.444;-2.018;2022-08-03T00:39:44;7.78;;;2.70;;
43435;SDS011;36399;51.444;-2.018;2022-08-03T00:42:12;6.50;;;2.00;;
43435;SDS011;36399;51.444;-2.018;2022-08-03T00:44:39;6.60;;;1.73;;
43435;SDS011;36399;51.444;-2.018;2022-08-03T00:47:10;4.05;;;1.30;;
43435;SDS011;36399;51.444;-2.018;2022-08-03T00:49:37;5.30;;;1.77;;
43435;SDS011;36399;51.444;-2.018;2022-08-03T00:52:04;4.22;;;1.30;;
43435;SDS011;36399;51.444;-2.018;2022-08-03T00:54:33;5.43;;;1.80;;
43435;SDS011;36399;51.444;-2.018;2022-08-03T00:56:59;5.57;;;1.52;;
43435;SDS011;36399;51.444;-2.018;2022-08-03T00:59:26;5.07;;;1.40;;
43435;SDS011;36399;51.444;-2.018;2022-08-03T01:01:52;2.75;;;1.30;;
43435;SDS011;36399;51.444;-2.018;2022-08-03T01:04:18;9.00;;;1.58;;
43435;SDS011;36399;51.444;-2.018;2022-08-03T01:06:45;6.07;;;1.95;;
43435;SDS011;36399;51.444;-2.018;2022-08-03T01:09:43;3.67;;;1.40;;
43435;SDS011;36399;51.444;-2.018;2022-08-03T01:12:34;4.63;;;1.33;;
43435;SDS011;36399;51.444;-2.018;2022-08-03T01:15:12;2.75;;;1.15;;
43435;SDS011;36399;51.444;-2.018;2022-08-03T01:17:52;5.38;;;1.85;;
43435;SDS011;36399;51.444;-2.018;2022-08-03T01:20:23;4.03;;;1.30;;
43435;SDS011;36399;51.444;-2.018;2022-08-03T01:31:28;5.97;;;1.35;;
43435;SDS011;36399;51.444;-2.018;2022-08-03T01:34:01;3.10;;;1.23;;
43435;SDS011;36399;51.444;-2.018;2022-08-03T01:36:32;3.75;;;1.25;;
43435;SDS011;36399;51.444;-2.018;2022-08-03T01:39:05;4.35;;;1.45;;
43435;SDS011;36399;51.444;-2.018;2022-08-03T01:41:35;6.35;;;2.20;;
43435;SDS011;36399;51.444;-2.018;2022-08-03T01:44:05;7.40;;;1.52;;
43435;SDS011;36399;51.444;-2.018;2022-08-03T01:46:33;4.07;;;1.50;;
43435;SDS011;36399;51.444;-2.018;2022-08-03T01:49:01;3.10;;;1.30;;
43435;SDS011;36399;51.444;-2.018;2022-08-03T01:51:29;6.68;;;1.60;;
43435;SDS011;36399;51.444;-2.018;2022-08-03T01:53:56;5.53;;;1.45;;
43435;SDS011;36399;51.444;-2.018;2022-08-03T01:56:24;5.03;;;2.05;;
43435;SDS011;36399;51.444;-2.018;2022-08-03T01:58:52;4.75;;;1.58;;
43435;SDS011;36399;51.444;-2.018;2022-08-03T02:01:21;3.95;;;1.40;;
43435;SDS011;36399;51.444;-2.018;2022-08-03T02:03:49;6.25;;;1.65;;
43435;SDS011;36399;51.444;-2.018;2022-08-03T02:06:18;5.78;;;1.38;;
43435;SDS011;36399;51.444;-2.018;2022-08-03T02:08:47;7.93;;;1.50;;
43435;SDS011;36399;51.444;-2.018;2022-08-03T02:11:14;5.25;;;2.05;;
43435;SDS011;36399;51.444;-2.018;2022-08-03T02:13:40;4.63;;;0.98;;
43435;SDS011;36399;51.444;-2.018;2022-08-03T02:16:08;3.92;;;1.45;;
43435;SDS011;36399;51.444;-2.018;2022-08-03T02:18:36;4.72;;;1.38;;
43435;SDS011;36399;51.444;-2.018;2022-08-03T02:21:04;4.55;;;1.42;;
43435;SDS011;36399;51.444;-2.018;2022-08-03T02:23:35;4.30;;;0.93;;
43435;SDS011;36399;51.444;-2.018;2022-08-03T02:26:02;4.20;;;1.40;;
43435;SDS011;36399;51.444;-2.018;2022-08-03T02:28:32;2.88;;;1.30;;
43435;SDS011;36399;51.444;-2.018;2022-08-03T02:31:02;4.40;;;2.05;;
43435;SDS011;36399;51.444;-2.018;2022-08-03T02:33:32;4.38;;;1.27;;
43435;SDS011;36399;51.444;-2.018;2022-08-03T02:36:01;5.60;;;1.55;;
43435;SDS011;36399;51.444;-2.018;2022-08-03T02:38:33;12.57;;;1.83;;
43435;SDS011;36399;51.444;-2.018;2022-08-03T02:41:04;8.20;;;1.25;;
43435;SDS011;36399;51.444;-2.018;2022-08-03T02:43:34;3.47;;;0.85;;
43435;SDS011;36399;51.444;-2.018;2022-08-03T02:46:02;3.58;;;1.00;;
43435;SDS011;36399;51.444;-2.018;2022-08-03T02:48:29;6.72;;;1.25;;
43435;SDS011;36399;51.444;-2.018;2022-08-03T02:50:59;3.67;;;1.90;;
43435;SDS011;36399;51.444;-2.018;2022-08-03T02:53:27;2.15;;;1.00;;
43435;SDS011;36399;51.444;-2.018;2022-08-03T02:55:54;4.25;;;1.05;;
43435;SDS011;36399;51.444;-2.018;2022-08-03T02:58:22;6.53;;;1.67;;
43435;SDS011;36399;51.444;-2.018;2022-08-03T03:00:49;5.18;;;1.10;;
43435;SDS011;36399;51.444;-2.018;2022-08-03T03:03:17;4.38;;;1.08;;
43435;SDS011;36399;51.444;-2.018;2022-08-03T03:05:43;2.25;;;0.55;;
43435;SDS011;36399;51.444;-2.018;2022-08-03T03:08:11;2.92;;;0.68;;
43435;SDS011;36399;51.444;-2.018;2022-08-03T03:10:38;4.57;;;1.23;;
43435;SDS011;36399;51.444;-2.018;2022-08-03T03:13:05;2.08;;;0.82;;
43435;SDS011;36399;51.444;-2.018;2022-08-03T03:15:33;4.97;;;1.13;;
43435;SDS011;36399;51.444;-2.018;2022-08-03T03:18:01;2.50;;;1.15;;
43435;SDS011;36399;51.444;-2.018;2022-08-03T03:20:29;5.10;;;1.05;;
43435;SDS011;36399;51.444;-2.018;2022-08-03T03:22:57;5.55;;;1.52;;
43435;SDS011;36399;51.444;-2.018;2022-08-03T03:25:25;3.00;;;1.08;;
43435;SDS011;36399;51.444;-2.018;2022-08-03T03:27:52;1.80;;;1.02;;
43435;SDS011;36399;51.444;-2.018;2022-08-03T03:30:18;4.28;;;0.93;;
43435;SDS011;36399;51.444;-2.018;2022-08-03T03:32:44;2.97;;;0.82;;
43435;SDS011;36399;51.444;-2.018;2022-08-03T03:35:10;4.63;;;1.23;;
43435;SDS011;36399;51.444;-2.018;2022-08-03T03:37:38;2.95;;;1.13;;
43435;SDS011;36399;51.444;-2.018;2022-08-03T03:40:04;6.07;;;1.85;;
43435;SDS011;36399;51.444;-2.018;2022-08-03T03:42:33;2.95;;;1.00;;
43435;SDS011;36399;51.444;-2.018;2022-08-03T03:45:05;5.05;;;1.20;;
43435;SDS011;36399;51.444;-2.018;2022-08-03T03:47:33;4.03;;;1.52;;
43435;SDS011;36399;51.444;-2.018;2022-08-03T03:50:04;5.38;;;1.25;;
43435;SDS011;36399;51.444;-2.018;2022-08-03T03:52:31;2.80;;;0.95;;
43435;SDS011;36399;51.444;-2.018;2022-08-03T03:54:58;2.65;;;0.50;;
43435;SDS011;36399;51.444;-2.018;2022-08-03T03:57:24;4.05;;;1.40;;
43435;SDS011;36399;51.444;-2.018;2022-08-03T03:59:50;2.92;;;0.73;;
43435;SDS011;36399;51.444;-2.018;2022-08-03T04:02:16;4.03;;;0.85;;
43435;SDS011;36399;51.444;-2.018;2022-08-03T04:04:42;3.67;;;1.10;;
43435;SDS011;36399;51.444;-2.018;2022-08-03T04:07:27;3.10;;;0.95;;
43435;SDS011;36399;51.444;-2.018;2022-08-03T04:10:21;3.75;;;1.05;;
43435;SDS011;36399;51.444;-2.018;2022-08-03T04:13:08;5.32;;;0.88;;
43435;SDS011;36399;51.444;-2.018;2022-08-03T04:15:37;1.63;;;0.47;;
43435;SDS011;36399;51.444;-2.018;2022-08-03T04:18:04;2.97;;;1.13;;
43435;SDS011;36399;51.444;-2.018;2022-08-03T04:20:34;2.63;;;0.82;;
43435;SDS011;36399;51.444;-2.018;2022-08-03T04:23:03;3.97;;;1.48;;
43435;SDS011;36399;51.444;-2.018;2022-08-03T04:25:32;2.67;;;1.30;;
43435;SDS011;36399;51.444;-2.018;2022-08-03T04:28:02;3.05;;;0.70;;
43435;SDS011;36399;51.444;-2.018;2022-08-03T04:30:30;2.55;;;0.57;;
43435;SDS011;36399;51.444;-2.018;2022-08-03T04:32:58;1.75;;;0.70;;
43435;SDS011;36399;51.444;-2.018;2022-08-03T04:35:30;2.42;;;0.90;;
43435;SDS011;36399;51.444;-2.018;2022-08-03T04:38:00;2.65;;;0.82;;
43435;SDS011;36399;51.444;-2.018;2022-08-03T04:40:34;1.92;;;1.00;;
43435;SDS011;36399;51.444;-2.018;2022-08-03T04:43:04;1.70;;;0.70;;
43435;SDS011;36399;51.444;-2.018;2022-08-03T04:45:30;1.55;;;0.55;;
43435;SDS011;36399;51.444;-2.018;2022-08-03T04:47:58;2.75;;;0.82;;
43435;SDS011;36399;51.444;-2.018;2022-08-03T04:50:24;3.45;;;1.58;;
43435;SDS011;36399;51.444;-2.018;2022-08-03T04:52:52;5.43;;;1.17;;
43435;SDS011;36399;51.444;-2.018;2022-08-03T04:55:28;1.77;;;0.68;;
43435;SDS011;36399;51.444;-2.018;2022-08-03T04:57:56;3.15;;;0.70;;
43435;SDS011;36399;51.444;-2.018;2022-08-03T05:00:23;2.22;;;0.90;;
43435;SDS011;36399;51.444;-2.018;2022-08-03T05:02:49;3.28;;;1.13;;
43435;SDS011;36399;51.444;-2.018;2022-08-03T05:05:16;2.05;;;0.40;;
43435;SDS011;36399;51.444;-2.018;2022-08-03T05:07:42;1.73;;;0.77;;
43435;SDS011;36399;51.444;-2.018;2022-08-03T05:10:09;4.80;;;0.95;;
43435;SDS011;36399;51.444;-2.018;2022-08-03T05:12:36;1.45;;;0.60;;
43435;SDS011;36399;51.444;-2.018;2022-08-03T05:15:03;4.03;;;1.45;;
43435;SDS011;36399;51.444;-2.018;2022-08-03T05:17:30;1.75;;;0.80;;
43435;SDS011;36399;51.444;-2.018;2022-08-03T05:19:58;1.17;;;0.65;;
43435;SDS011;36399;51.444;-2.018;2022-08-03T05:22:28;3.53;;;0.68;;
43435;SDS011;36399;51.444;-2.018;2022-08-03T05:24:55;5.70;;;0.70;;
43435;SDS011;36399;51.444;-2.018;2022-08-03T05:27:21;1.77;;;0.70;;
43435;SDS011;36399;51.444;-2.018;2022-08-03T05:29:47;1.30;;;0.50;;
43435;SDS011;36399;51.444;-2.018;2022-08-03T05:32:15;3.88;;;1.10;;
43435;SDS011;36399;51.444;-2.018;2022-08-03T05:34:42;6.18;;;1.05;;
43435;SDS011;36399;51.444;-2.018;2022-08-03T05:37:08;1.55;;;0.50;;
43435;SDS011;36399;51.444;-2.018;2022-08-03T05:39:35;3.67;;;0.93;;
43435;SDS011;36399;51.444;-2.018;2022-08-03T05:42:01;2.00;;;0.70;;
43435;SDS011;36399;51.444;-2.018;2022-08-03T05:44:27;1.50;;;0.52;;
43435;SDS011;36399;51.444;-2.018;2022-08-03T05:46:53;1.63;;;0.52;;
43435;SDS011;36399;51.444;-2.018;2022-08-03T05:49:19;2.33;;;0.95;;
43435;SDS011;36399;51.444;-2.018;2022-08-03T05:51:45;1.95;;;0.68;;
43435;SDS011;36399;51.444;-2.018;2022-08-03T05:54:11;3.25;;;1.13;;
43435;SDS011;36399;51.444;-2.018;2022-08-03T05:56:37;3.55;;;0.73;;
43435;SDS011;36399;51.444;-2.018;2022-08-03T05:59:05;1.77;;;0.60;;
43435;SDS011;36399;51.444;-2.018;2022-08-03T06:01:31;1.27;;;0.40;;
43435;SDS011;36399;51.444;-2.018;2022-08-03T06:03:58;3.53;;;1.08;;
43435;SDS011;36399;51.444;-2.018;2022-08-03T06:06:24;4.32;;;0.63;;
43435;SDS011;36399;51.444;-2.018;2022-08-03T06:08:50;3.00;;;0.80;;
43435;SDS011;36399;51.444;-2.018;2022-08-03T06:11:17;2.30;;;0.60;;
43435;SDS011;36399;51.444;-2.018;2022-08-03T06:13:43;2.22;;;0.50;;
43435;SDS011;36399;51.444;-2.018;2022-08-03T06:16:09;1.70;;;0.65;;
43435;SDS011;36399;51.444;-2.018;2022-08-03T06:18:36;2.33;;;0.50;;
43435;SDS011;36399;51.444;-2.018;2022-08-03T06:21:02;1.48;;;0.40;;
43435;SDS011;36399;51.444;-2.018;2022-08-03T06:23:29;2.63;;;0.60;;
43435;SDS011;36399;51.444;-2.018;2022-08-03T06:25:55;1.25;;;0.93;;
43435;SDS011;36399;51.444;-2.018;2022-08-03T06:28:21;2.53;;;0.30;;
43435;SDS011;36399;51.444;-2.018;2022-08-03T06:30:47;2.05;;;0.57;;
43435;SDS011;36399;51.444;-2.018;2022-08-03T06:33:13;3.38;;;0.60;;
43435;SDS011;36399;51.444;-2.018;2022-08-03T06:35:39;1.13;;;0.45;;
43435;SDS011;36399;51.444;-2.018;2022-08-03T06:38:05;0.73;;;0.28;;
43435;SDS011;36399;51.444;-2.018;2022-08-03T06:40:33;2.67;;;0.47;;
43435;SDS011;36399;51.444;-2.018;2022-08-03T06:43:04;2.92;;;0.52;;
43435;SDS011;36399;51.444;-2.018;2022-08-03T06:45:31;2.20;;;0.60;;
43435;SDS011;36399;51.444;-2.018;2022-08-03T06:47:59;1.83;;;0.40;;
43435;SDS011;36399;51.444;-2.018;2022-08-03T06:50:30;2.60;;;0.50;;
43435;SDS011;36399;51.444;-2.018;2022-08-03T06:52:56;0.63;;;0.30;;
43435;SDS011;36399;51.444;-2.018;2022-08-03T06:55:23;1.75;;;0.40;;
43435;SDS011;36399;51.444;-2.018;2022-08-03T06:57:49;2.65;;;0.47;;
43435;SDS011;36399;51.444;-2.018;2022-08-03T07:00:15;0.98;;;0.30;;
43435;SDS011;36399;51.444;-2.018;2022-08-03T07:02:41;0.70;;;0.20;;
43435;SDS011;36399;51.444;-2.018;2022-08-03T07:05:08;0.52;;;0.10;;
43435;SDS011;36399;51.444;-2.018;2022-08-03T07:07:34;1.02;;;0.65;;
43435;SDS011;36399;51.444;-2.018;2022-08-03T07:10:00;0.43;;;0.17;;
43435;SDS011;36399;51.444;-2.018;2022-08-03T07:12:27;3.28;;;0.20;;
43435;SDS011;36399;51.444;-2.018;2022-08-03T07:14:54;0.75;;;0.13;;
43435;SDS011;36399;51.444;-2.018;2022-08-03T07:17:21;0.75;;;0.10;;
43435;SDS011;36399;51.444;-2.018;2022-08-03T07:19:48;2.22;;;0.25;;
43435;SDS011;36399;51.444;-2.018;2022-08-03T07:22:14;1.02;;;0.17;;
43435;SDS011;36399;51.444;-2.018;2022-08-03T07:24:40;0.25;;;0.10;;
43435;SDS011;36399;51.444;-2.018;2022-08-03T07:27:09;0.75;;;0.25;;
43435;SDS011;36399;51.444;-2.018;2022-08-03T07:29:35;0.43;;;0.20;;
43435;SDS011;36399;51.444;-2.018;2022-08-03T07:32:02;0.50;;;0.10;;
43435;SDS011;36399;51.444;-2.018;2022-08-03T07:34:29;0.50;;;0.10;;
43435;SDS011;36399;51.444;-2.018;2022-08-03T07:36:56;1.63;;;0.30;;
43435;SDS011;36399;51.444;-2.018;2022-08-03T07:39:22;2.08;;;0.20;;
43435;SDS011;36399;51.444;-2.018;2022-08-03T07:41:48;1.25;;;0.38;;
43435;SDS011;36399;51.444;-2.018;2022-08-03T07:44:16;1.23;;;0.30;;
43435;SDS011;36399;51.444;-2.018;2022-08-03T07:46:42;0.80;;;0.30;;
43435;SDS011;36399;51.444;-2.018;2022-08-03T07:49:09;1.35;;;0.15;;
43435;SDS011;36399;51.444;-2.018;2022-08-03T07:51:34;0.55;;;0.20;;
43435;SDS011;36399;51.444;-2.018;2022-08-03T07:54:01;2.30;;;0.95;;
43435;SDS011;36399;51.444;-2.018;2022-08-03T07:56:27;0.40;;;0.20;;
43435;SDS011;36399;51.444;-2.018;2022-08-03T07:58:53;0.98;;;0.30;;
43435;SDS011;36399;51.444;-2.018;2022-08-03T08:01:20;1.20;;;0.40;;
43435;SDS011;36399;51.444;-2.018;2022-08-03T08:03:47;1.25;;;0.10;;
43435;SDS011;36399;51.444;-2.018;2022-08-03T08:06:15;0.82;;;0.30;;
43435;SDS011;36399;51.444;-2.018;2022-08-03T08:08:42;1.38;;;0.22;;
43435;SDS011;36399;51.444;-2.018;2022-08-03T08:11:08;0.22;;;0.20;;
43435;SDS011;36399;51.444;-2.018;2022-08-03T08:13:34;0.15;;;0.10;;
43435;SDS011;36399;51.444;-2.018;2022-08-03T08:16:03;1.25;;;0.25;;
43435;SDS011;36399;51.444;-2.018;2022-08-03T08:18:30;2.10;;;0.30;;
43435;SDS011;36399;51.444;-2.018;2022-08-03T08:20:56;0.75;;;0.32;;
43435;SDS011;36399;51.444;-2.018;2022-08-03T08:23:22;1.88;;;0.68;;
43435;SDS011;36399;51.444;-2.018;2022-08-03T08:25:49;0.77;;;0.25;;
43435;SDS011;36399;51.444;-2.018;2022-08-03T08:28:16;0.28;;;0.17;;
43435;SDS011;36399;51.444;-2.018;2022-08-03T08:30:44;2.05;;;0.20;;
43435;SDS011;36399;51.444;-2.018;2022-08-03T08:33:10;0.35;;;0.20;;
43435;SDS011;36399;51.444;-2.018;2022-08-03T08:35:36;0.57;;;0.15;;
43435;SDS011;36399;51.444;-2.018;2022-08-03T08:38:02;0.82;;;0.40;;
43435;SDS011;36399;51.444;-2.018;2022-08-03T08:40:29;0.30;;;0.10;;
43435;SDS011;36399;51.444;-2.018;2022-08-03T08:42:55;1.08;;;0.40;;
43435;SDS011;36399;51.444;-2.018;2022-08-03T08:45:21;1.80;;;0.22;;
43435;SDS011;36399;51.444;-2.018;2022-08-03T08:47:48;2.53;;;0.50;;
43435;SDS011;36399;51.444;-2.018;2022-08-03T08:50:18;1.55;;;0.45;;
43435;SDS011;36399;51.444;-2.018;2022-08-03T08:52:47;0.20;;;0.10;;
43435;SDS011;36399;51.444;-2.018;2022-08-03T08:55:18;1.77;;;0.80;;
43435;SDS011;36399;51.444;-2.018;2022-08-03T08:57:47;0.60;;;0.22;;
43435;SDS011;36399;51.444;-2.018;2022-08-03T09:00:45;0.73;;;0.25;;
43435;SDS011;36399;51.444;-2.018;2022-08-03T09:03:13;0.20;;;0.20;;
43435;SDS011;36399;51.444;-2.018;2022-08-03T09:05:41;0.40;;;0.22;;
43435;SDS011;36399;51.444;-2.018;2022-08-03T09:08:08;1.38;;;0.45;;
43435;SDS011;36399;51.444;-2.018;2022-08-03T09:10:34;1.00;;;0.10;;
43435;SDS011;36399;51.444;-2.018;2022-08-03T09:13:00;2.40;;;0.75;;
43435;SDS011;36399;51.444;-2.018;2022-08-03T09:17:57;0.77;;;0.30;;
43435;SDS011;36399;51.444;-2.018;2022-08-03T09:20:29;1.27;;;0.40;;
43435;SDS011;36399;51.444;-2.018;2022-08-03T09:23:01;1.85;;;0.22;;
43435;SDS011;36399;51.444;-2.018;2022-08-03T09:28:13;1.52;;;0.35;;
43435;SDS011;36399;51.444;-2.018;2022-08-03T09:30:41;0.15;;;0.15;;
43435;SDS011;36399;51.444;-2.018;2022-08-03T09:33:22;0.50;;;0.20;;
43435;SDS011;36399;51.444;-2.018;2022-08-03T09:35:48;0.80;;;0.28;;
43435;SDS011;36399;51.444;-2.018;2022-08-03T09:38:16;1.63;;;0.28;;
43435;SDS011;36399;51.444;-2.018;2022-08-03T09:40:42;0.63;;;0.20;;
43435;SDS011;36399;51.444;-2.018;2022-08-03T09:43:09;1.70;;;0.65;;
43435;SDS011;36399;51.444;-2.018;2022-08-03T09:45:36;0.70;;;0.50;;
43435;SDS011;36399;51.444;-2.018;2022-08-03T09:51:07;0.60;;;0.20;;
43435;SDS011;36399;51.444;-2.018;2022-08-03T09:53:42;0.63;;;0.20;;
43435;SDS011;36399;51.444;-2.018;2022-08-03T09:56:11;0.52;;;0.20;;
43435;SDS011;36399;51.444;-2.018;2022-08-03T09:58:45;0.40;;;0.10;;
43435;SDS011;36399;51.444;-2.018;2022-08-03T10:01:11;1.45;;;0.40;;
43435;SDS011;36399;51.444;-2.018;2022-08-03T10:03:38;0.70;;;0.40;;
43435;SDS011;36399;51.444;-2.018;2022-08-03T10:06:17;1.08;;;0.20;;
43435;SDS011;36399;51.444;-2.018;2022-08-03T10:08:45;0.55;;;0.32;;
43435;SDS011;36399;51.444;-2.018;2022-08-03T10:11:11;1.05;;;0.60;;
43435;SDS011;36399;51.444;-2.018;2022-08-03T10:13:37;0.65;;;0.38;;
43435;SDS011;36399;51.444;-2.018;2022-08-03T10:16:04;1.73;;;0.57;;
43435;SDS011;36399;51.444;-2.018;2022-08-03T10:18:31;1.00;;;0.43;;
43435;SDS011;36399;51.444;-2.018;2022-08-03T10:21:03;1.15;;;0.40;;
43435;SDS011;36399;51.444;-2.018;2022-08-03T10:23:33;1.17;;;0.40;;
43435;SDS011;36399;51.444;-2.018;2022-08-03T10:26:01;0.73;;;0.40;;
43435;SDS011;36399;51.444;-2.018;2022-08-03T10:28:36;1.75;;;0.40;;
43435;SDS011;36399;51.444;-2.018;2022-08-03T10:31:05;0.95;;;0.50;;
43435;SDS011;36399;51.444;-2.018;2022-08-03T10:33:33;1.27;;;0.43;;
43435;SDS011;36399;51.444;-2.018;2022-08-03T10:36:06;1.27;;;0.50;;
43435;SDS011;36399;51.444;-2.018;2022-08-03T10:38:37;1.80;;;1.25;;
43435;SDS011;36399;51.444;-2.018;2022-08-03T10:41:07;2.38;;;0.70;;
43435;SDS011;36399;51.444;-2.018;2022-08-03T10:43:37;1.90;;;0.73;;
43435;SDS011;36399;51.444;-2.018;2022-08-03T10:46:10;1.73;;;1.02;;
43435;SDS011;36399;51.444;-2.018;2022-08-03T10:48:36;2.47;;;1.30;;
43435;SDS011;36399;51.444;-2.018;2022-08-03T10:51:03;2.17;;;1.08;;
43435;SDS011;36399;51.444;-2.018;2022-08-03T10:53:37;2.53;;;1.33;;
43435;SDS011;36399;51.444;-2.018;2022-08-03T10:56:05;10.18;;;5.68;;
43435;SDS011;36399;51.444;-2.018;2022-08-03T10:58:53;8.20;;;2.95;;
43435;SDS011;36399;51.444;-2.018;2022-08-03T11:01:47;2.35;;;1.08;;
43435;SDS011;36399;51.444;-2.018;2022-08-03T11:04:14;1.30;;;0.85;;
43435;SDS011;36399;51.444;-2.018;2022-08-03T11:06:41;1.17;;;0.68;;
43435;SDS011;36399;51.444;-2.018;2022-08-03T11:11:35;1.15;;;0.60;;
43435;SDS011;36399;51.444;-2.018;2022-08-03T11:14:03;1.27;;;0.70;;
43435;SDS011;36399;51.444;-2.018;2022-08-03T11:16:36;1.42;;;0.40;;
43435;SDS011;36399;51.444;-2.018;2022-08-03T11:19:06;1.77;;;0.70;;
43435;SDS011;36399;51.444;-2.018;2022-08-03T11:24:57;8.48;;;0.90;;
43435;SDS011;36399;51.444;-2.018;2022-08-03T11:35:10;0.65;;;0.30;;
43435;SDS011;36399;51.444;-2.018;2022-08-03T11:38:00;1.55;;;0.43;;
43435;SDS011;36399;51.444;-2.018;2022-08-03T11:43:00;0.80;;;0.45;;
43435;SDS011;36399;51.444;-2.018;2022-08-03T11:45:27;0.85;;;0.50;;
43435;SDS011;36399;51.444;-2.018;2022-08-03T11:47:54;1.13;;;0.50;;
43435;SDS011;36399;51.444;-2.018;2022-08-03T11:50:20;1.50;;;0.60;;
43435;SDS011;36399;51.444;-2.018;2022-08-03T11:52:47;0.73;;;0.20;;
43435;SDS011;36399;51.444;-2.018;2022-08-03T11:55:15;1.45;;;0.35;;
43435;SDS011;36399;51.444;-2.018;2022-08-03T11:57:43;0.47;;;0.20;;
43435;SDS011;36399;51.444;-2.018;2022-08-03T12:00:18;0.88;;;0.50;;
43435;SDS011;36399;51.444;-2.018;2022-08-03T12:03:05;1.38;;;0.52;;
43435;SDS011;36399;51.444;-2.018;2022-08-03T12:05:41;2.78;;;0.50;;
43435;SDS011;36399;51.444;-2.018;2022-08-03T12:08:09;1.05;;;0.30;;
43435;SDS011;36399;51.444;-2.018;2022-08-03T12:10:37;1.58;;;0.95;;
43435;SDS011;36399;51.444;-2.018;2022-08-03T12:13:04;1.50;;;0.70;;
43435;SDS011;36399;51.444;-2.018;2022-08-03T12:15:33;3.05;;;0.90;;
43435;SDS011;36399;51.444;-2.018;2022-08-03T12:18:01;2.30;;;0.80;;
43435;SDS011;36399;51.444;-2.018;2022-08-03T12:20:29;8.10;;;1.20;;
43435;SDS011;36399;51.444;-2.018;2022-08-03T12:23:04;3.40;;;0.70;;
43435;SDS011;36399;51.444;-2.018;2022-08-03T12:25:31;1.73;;;0.65;;
43435;SDS011;36399;51.444;-2.018;2022-08-03T12:28:15;1.02;;;0.57;;
43435;SDS011;36399;51.444;-2.018;2022-08-03T12:30:48;3.28;;;0.90;;
43435;SDS011;36399;51.444;-2.018;2022-08-03T12:33:17;1.88;;;0.80;;
43435;SDS011;36399;51.444;-2.018;2022-08-03T12:35:48;1.75;;;0.68;;
43435;SDS011;36399;51.444;-2.018;2022-08-03T12:38:19;1.27;;;0.60;;
43435;SDS011;36399;51.444;-2.018;2022-08-03T12:40:56;1.95;;;0.90;;
43435;SDS011;36399;51.444;-2.018;2022-08-03T12:43:24;2.08;;;0.85;;
43435;SDS011;36399;51.444;-2.018;2022-08-03T12:45:50;2.03;;;0.90;;
43435;SDS011;36399;51.444;-2.018;2022-08-03T12:48:16;2.08;;;1.02;;
43435;SDS011;36399;51.444;-2.018;2022-08-03T12:50:42;2.65;;;1.42;;
43435;SDS011;36399;51.444;-2.018;2022-08-03T12:53:09;2.42;;;1.70;;
43435;SDS011;36399;51.444;-2.018;2022-08-03T12:55:38;4.88;;;1.60;;
43435;SDS011;36399;51.444;-2.018;2022-08-03T12:58:05;5.25;;;1.48;;
43435;SDS011;36399;51.444;-2.018;2022-08-03T13:00:32;3.45;;;1.63;;
43435;SDS011;36399;51.444;-2.018;2022-08-03T13:03:05;4.28;;;2.00;;
43435;SDS011;36399;51.444;-2.018;2022-08-03T13:05:41;6.78;;;2.72;;
43435;SDS011;36399;51.444;-2.018;2022-08-03T13:08:18;6.45;;;1.65;;
43435;SDS011;36399;51.444;-2.018;2022-08-03T13:10:48;5.57;;;1.70;;
43435;SDS011;36399;51.444;-2.018;2022-08-03T13:13:14;4.32;;;1.67;;
43435;SDS011;36399;51.444;-2.018;2022-08-03T13:15:41;4.63;;;1.75;;
43435;SDS011;36399;51.444;-2.018;2022-08-03T13:18:07;4.72;;;1.90;;
43435;SDS011;36399;51.444;-2.018;2022-08-03T13:20:34;7.55;;;2.00;;
43435;SDS011;36399;51.444;-2.018;2022-08-03T13:23:00;3.63;;;1.77;;
43435;SDS011;36399;51.444;-2.018;2022-08-03T13:25:26;2.72;;;1.40;;
43435;SDS011;36399;51.444;-2.018;2022-08-03T13:27:52;3.80;;;1.65;;
43435;SDS011;36399;51.444;-2.018;2022-08-03T13:30:18;2.38;;;1.25;;
43435;SDS011;36399;51.444;-2.018;2022-08-03T13:32:44;4.07;;;1.30;;
43435;SDS011;36399;51.444;-2.018;2022-08-03T13:35:10;3.72;;;1.50;;
43435;SDS011;36399;51.444;-2.018;2022-08-03T13:37:37;5.10;;;2.13;;
43435;SDS011;36399;51.444;-2.018;2022-08-03T13:40:04;2.45;;;1.42;;
43435;SDS011;36399;51.444;-2.018;2022-08-03T13:42:32;2.83;;;1.35;;
43435;SDS011;36399;51.444;-2.018;2022-08-03T13:44:59;4.43;;;1.73;;
43435;SDS011;36399;51.444;-2.018;2022-08-03T13:47:26;3.97;;;1.63;;
43435;SDS011;36399;51.444;-2.018;2022-08-03T13:49:52;7.15;;;1.63;;
43435;SDS011;36399;51.444;-2.018;2022-08-03T13:52:21;3.13;;;1.30;;
43435;SDS011;36399;51.444;-2.018;2022-08-03T13:54:47;3.10;;;1.02;;
43435;SDS011;36399;51.444;-2.018;2022-08-03T13:57:13;3.63;;;1.60;;
43435;SDS011;36399;51.444;-2.018;2022-08-03T13:59:39;2.80;;;1.02;;
43435;SDS011;36399;51.444;-2.018;2022-08-03T14:02:05;4.82;;;1.60;;
43435;SDS011;36399;51.444;-2.018;2022-08-03T14:04:31;4.75;;;1.20;;
43435;SDS011;36399;51.444;-2.018;2022-08-03T14:06:57;3.10;;;1.52;;
43435;SDS011;36399;51.444;-2.018;2022-08-03T14:09:23;2.28;;;1.40;;
43435;SDS011;36399;51.444;-2.018;2022-08-03T14:11:50;3.88;;;1.50;;
43435;SDS011;36399;51.444;-2.018;2022-08-03T14:14:16;3.25;;;1.20;;
43435;SDS011;36399;51.444;-2.018;2022-08-03T14:16:42;3.55;;;1.20;;
43435;SDS011;36399;51.444;-2.018;2022-08-03T14:19:08;2.40;;;0.80;;
43435;SDS011;36399;51.444;-2.018;2022-08-03T14:21:34;2.05;;;1.10;;
43435;SDS011;36399;51.444;-2.018;2022-08-03T14:24:00;4.13;;;1.52;;
43435;SDS011;36399;51.444;-2.018;2022-08-03T14:26:27;3.70;;;1.35;;
43435;SDS011;36399;51.444;-2.018;2022-08-03T14:28:53;3.00;;;1.20;;
43435;SDS011;36399;51.444;-2.018;2022-08-03T14:31:20;3.22;;;1.40;;
43435;SDS011;36399;51.444;-2.018;2022-08-03T14:33:46;3.85;;;1.58;;
43435;SDS011;36399;51.444;-2.018;2022-08-03T14:36:12;5.15;;;1.20;;
43435;SDS011;36399;51.444;-2.018;2022-08-03T14:38:38;3.60;;;1.88;;
43435;SDS011;36399;51.444;-2.018;2022-08-03T14:41:04;3.50;;;1.75;;
43435;SDS011;36399;51.444;-2.018;2022-08-03T14:43:30;2.92;;;1.10;;
43435;SDS011;36399;51.444;-2.018;2022-08-03T14:45:56;3.42;;;1.50;;
43435;SDS011;36399;51.444;-2.018;2022-08-03T14:48:22;2.65;;;1.45;;
43435;SDS011;36399;51.444;-2.018;2022-08-03T14:50:49;2.70;;;1.20;;
43435;SDS011;36399;51.444;-2.018;2022-08-03T14:53:17;4.68;;;1.10;;
43435;SDS011;36399;51.444;-2.018;2022-08-03T14:55:43;2.25;;;0.90;;
43435;SDS011;36399;51.444;-2.018;2022-08-03T14:58:14;2.40;;;1.00;;
43435;SDS011;36399;51.444;-2.018;2022-08-03T15:00:40;3.38;;;1.00;;
43435;SDS011;36399;51.444;-2.018;2022-08-03T15:03:06;2.10;;;0.73;;
43435;SDS011;36399;51.444;-2.018;2022-08-03T15:05:38;2.95;;;1.10;;
43435;SDS011;36399;51.444;-2.018;2022-08-03T15:08:04;3.40;;;1.13;;
43435;SDS011;36399;51.444;-2.018;2022-08-03T15:10:30;2.83;;;1.00;;
43435;SDS011;36399;51.444;-2.018;2022-08-03T15:12:56;4.97;;;1.30;;